Time;durP1;ratioP1;P1;durP2;ratioP2;P2;SDS_P1;SDS_P2;PMS_P1;PMS_P2;Temp;Humidity;BMP_temperature;BMP_pressure;BME280_temperature;BME280_humidity;BME280_pressure;Samples;Min_cycle;Max_cycle;Signal;HPM_P1;HPM_P2
2021/01/14 00:01:32;;;;;;;9.40;7.73;;;1.60;72.10;;;;;;5049417;28;20458;-82
2021/01/14 00:03:59;;;;;;;12.50;9.20;;;1.60;72.20;;;;;;5052955;28;20468;-85
2021/01/14 00:06:26;;;;;;;9.13;7.70;;;1.60;72.40;;;;;;5051854;28;21689;-83
2021/01/14 00:09:08;;;;;;;8.80;7.90;;;1.70;72.50;;;;;;5051452;28;20461;-85
2021/01/14 00:11:36;;;;;;;10.73;8.60;;;1.60;72.40;;;;;;5047715;28;20990;-83
2021/01/14 00:14:02;;;;;;;12.10;8.33;;;1.70;72.20;;;;;;5056397;28;20470;-84
2021/01/14 00:16:29;;;;;;;8.60;7.70;;;1.70;72.40;;;;;;5054964;28;20485;-83
2021/01/14 00:18:58;;;;;;;10.30;7.80;;;1.80;72.60;;;;;;5054687;28;20452;-82
2021/01/14 00:21:25;;;;;;;9.50;7.40;;;1.70;72.50;;;;;;5055884;28;20459;-83
2021/01/14 00:23:51;;;;;;;10.27;8.23;;;1.80;72.10;;;;;;5062408;28;20477;-87
2021/01/14 00:26:18;;;;;;;9.50;7.43;;;1.80;72.10;;;;;;5062541;28;20479;-85
2021/01/14 00:28:47;;;;;;;9.97;8.97;;;1.80;72.10;;;;;;5064548;28;20445;-84
2021/01/14 00:31:14;;;;;;;11.53;8.20;;;1.80;72.30;;;;;;5058376;28;20981;-82
2021/01/14 00:33:43;;;;;;;9.80;7.10;;;1.90;71.80;;;;;;5072823;28;20446;-86
2021/01/14 00:36:10;;;;;;;10.37;8.40;;;1.90;71.70;;;;;;5066500;28;20455;-88
2021/01/14 00:38:36;;;;;;;13.23;8.57;;;2.00;71.90;;;;;;5047212;28;20463;-87
2021/01/14 00:41:04;;;;;;;10.00;8.50;;;1.90;72.00;;;;;;5063913;28;20535;-86
2021/01/14 00:43:32;;;;;;;12.80;9.67;;;1.90;72.30;;;;;;5060387;28;20457;-86
2021/01/14 00:46:00;;;;;;;12.23;9.40;;;2.00;72.50;;;;;;5043496;28;20553;-87
2021/01/14 00:48:29;;;;;;;11.10;8.00;;;1.90;72.00;;;;;;5063709;28;20460;-88
2021/01/14 00:50:56;;;;;;;10.77;7.53;;;1.90;72.30;;;;;;5045749;28;20455;-87
2021/01/14 00:53:25;;;;;;;10.90;8.17;;;2.00;71.80;;;;;;5055407;28;20446;-87
2021/01/14 00:55:52;;;;;;;11.30;8.23;;;2.00;72.00;;;;;;5050275;28;20456;-87
2021/01/14 00:58:24;;;;;;;11.83;8.47;;;2.00;71.90;;;;;;5045380;28;20829;-87
2021/01/14 01:00:51;;;;;;;10.57;8.50;;;2.10;71.90;;;;;;5048209;28;20487;-88
2021/01/14 01:03:19;;;;;;;9.60;7.33;;;2.10;72.10;;;;;;5032778;28;20468;-87
2021/01/14 01:05:47;;;;;;;10.10;9.00;;;2.10;71.90;;;;;;5049404;28;20462;-87
2021/01/14 01:08:15;;;;;;;13.17;9.60;;;2.00;71.90;;;;;;5050830;28;20859;-86
2021/01/14 01:10:53;;;;;;;9.43;7.93;;;2.10;72.20;;;;;;5059430;28;20455;-85
2021/01/14 01:13:23;;;;;;;11.53;8.80;;;2.10;72.00;;;;;;5031825;28;20480;-87
2021/01/14 01:15:53;;;;;;;10.63;8.57;;;2.10;72.40;;;;;;5035455;28;20475;-87
2021/01/14 01:18:26;;;;;;;9.83;8.50;;;2.20;72.50;;;;;;5050224;28;20578;-87
2021/01/14 01:20:54;;;;;;;13.20;8.47;;;2.10;72.40;;;;;;5033009;28;20467;-86
2021/01/14 01:23:23;;;;;;;15.73;9.80;;;2.00;72.50;;;;;;5049695;28;20454;-86
2021/01/14 01:25:53;;;;;;;11.93;7.93;;;2.10;72.30;;;;;;5049301;28;20474;-86
2021/01/14 01:28:27;;;;;;;11.93;9.43;;;2.10;72.40;;;;;;5036483;28;20840;-86
2021/01/14 01:30:54;;;;;;;9.53;8.17;;;2.10;72.40;;;;;;5056837;28;20515;-87
2021/01/14 01:33:24;;;;;;;9.50;7.90;;;2.10;72.40;;;;;;5057857;28;20443;-86
2021/01/14 01:35:54;;;;;;;11.00;9.10;;;2.10;72.00;;;;;;5054950;28;20449;-86
2021/01/14 01:38:21;;;;;;;11.40;9.10;;;2.10;72.30;;;;;;5038339;28;20481;-86
2021/01/14 01:40:54;;;;;;;10.13;8.50;;;2.10;72.40;;;;;;5059442;28;20470;-87
2021/01/14 01:43:24;;;;;;;11.13;9.33;;;2.10;72.80;;;;;;5067545;28;20447;-87
2021/01/14 01:45:56;;;;;;;13.03;9.10;;;2.00;73.60;;;;;;5063405;28;20485;-88
2021/01/14 01:51:05;;;;;;;8.23;4.50;;;1.00;83.10;;;;;;5054373;28;20541;-86
2021/01/14 01:53:33;;;;;;;5.13;3.03;;;0.60;93.90;;;;;;5051071;28;20466;-88
2021/01/14 01:56:02;;;;;;;7.03;4.00;;;0.30;99.90;;;;;;5036354;28;20475;-85
2021/01/14 01:58:33;;;;;;;4.13;3.00;;;0.30;99.90;;;;;;5067533;28;20462;-88
2021/01/14 02:00:59;;;;;;;4.40;3.00;;;0.30;99.90;;;;;;5057880;28;20451;-86
2021/01/14 02:03:32;;;;;;;4.37;2.90;;;0.30;99.90;;;;;;5070686;28;20461;-87
2021/01/14 02:06:01;;;;;;;4.00;3.03;;;0.30;99.90;;;;;;5045445;28;20510;-86
2021/01/14 02:08:43;;;;;;;6.43;4.40;;;0.40;99.90;;;;;;5063612;28;20532;-85
2021/01/14 02:11:21;;;;;;;7.73;5.07;;;0.50;99.90;;;;;;5039708;28;20481;-86
2021/01/14 02:14:03;;;;;;;12.30;8.07;;;0.50;99.90;;;;;;5052340;28;20550;-84
2021/01/14 02:16:37;;;;;;;8.60;7.30;;;0.50;99.90;;;;;;5064335;28;20859;-85
2021/01/14 02:19:11;;;;;;;13.27;9.03;;;0.50;99.90;;;;;;5052226;28;20453;-84
2021/01/14 02:21:40;;;;;;;14.60;8.80;;;0.60;99.90;;;;;;5052200;28;20547;-86
2021/01/14 02:24:14;;;;;;;10.20;7.33;;;0.60;98.30;;;;;;5052536;28;20471;-85
2021/01/14 02:26:44;;;;;;;7.80;6.03;;;0.80;89.30;;;;;;5056732;28;20490;-86
2021/01/14 02:29:13;;;;;;;8.60;5.93;;;0.70;89.00;;;;;;5056099;28;20438;-86
2021/01/14 02:31:41;;;;;;;7.60;4.57;;;0.70;85.80;;;;;;5052356;28;20543;-86
2021/01/14 02:34:09;;;;;;;6.10;4.63;;;0.70;82.90;;;;;;5052927;28;20688;-85
2021/01/14 02:36:43;;;;;;;7.30;5.30;;;0.70;83.40;;;;;;5052355;28;20480;-85
2021/01/14 02:39:09;;;;;;;5.70;4.30;;;0.70;82.30;;;;;;5050459;28;20479;-85
2021/01/14 02:41:41;;;;;;;6.40;4.37;;;0.70;81.70;;;;;;5051894;28;20448;-88
2021/01/14 02:44:11;;;;;;;5.97;4.10;;;0.70;82.00;;;;;;5063747;28;20534;-89
2021/01/14 02:46:39;;;;;;;6.87;4.60;;;0.70;81.10;;;;;;5054242;28;20448;-88
2021/01/14 02:49:07;;;;;;;4.83;4.33;;;0.70;80.10;;;;;;5067624;28;20451;-88
2021/01/14 02:51:40;;;;;;;4.83;3.70;;;0.60;80.00;;;;;;5059356;28;20452;-89
2021/01/14 02:54:10;;;;;;;5.80;5.13;;;0.60;79.40;;;;;;5063445;28;20528;-86
2021/01/14 02:56:39;;;;;;;6.13;4.03;;;0.60;78.90;;;;;;5058124;28;20462;-86
2021/01/14 02:59:09;;;;;;;10.30;3.87;;;0.70;78.00;;;;;;5055276;28;20449;-89
2021/01/14 03:01:39;;;;;;;3.67;3.30;;;0.70;76.90;;;;;;5056086;28;20544;-83
2021/01/14 03:04:06;;;;;;;7.50;4.07;;;0.70;77.20;;;;;;5039853;28;20620;-86
2021/01/14 03:06:34;;;;;;;4.80;4.00;;;0.60;76.80;;;;;;5035848;28;20465;-88
2021/01/14 03:09:04;;;;;;;9.43;4.33;;;0.60;76.40;;;;;;5057378;28;20458;-87
2021/01/14 03:11:33;;;;;;;4.80;4.40;;;0.70;74.70;;;;;;5054862;28;20494;-87
2021/01/14 03:14:02;;;;;;;3.20;2.40;;;0.70;75.10;;;;;;5059110;28;20460;-87
2021/01/14 03:16:29;;;;;;;3.23;2.90;;;0.60;74.50;;;;;;5063524;28;20451;-86
2021/01/14 03:18:56;;;;;;;3.27;2.03;;;0.60;74.30;;;;;;5066408;28;20459;-89
2021/01/14 03:21:26;;;;;;;7.53;2.30;;;0.70;73.60;;;;;;5074066;28;20435;-89
2021/01/14 03:23:53;;;;;;;4.67;1.70;;;0.50;73.00;;;;;;5071269;28;20450;-85
2021/01/14 03:26:22;;;;;;;2.83;1.90;;;0.60;71.90;;;;;;5064194;28;20470;-85
2021/01/14 03:28:51;;;;;;;2.60;1.80;;;0.60;71.80;;;;;;5063390;28;20449;-85
2021/01/14 03:31:18;;;;;;;3.70;1.83;;;0.50;71.90;;;;;;5063317;28;20471;-86
2021/01/14 03:33:47;;;;;;;2.40;1.83;;;0.50;71.50;;;;;;5056581;28;20459;-85
2021/01/14 03:36:18;;;;;;;2.03;1.43;;;0.50;71.20;;;;;;5066501;28;20766;-85
2021/01/14 03:38:47;;;;;;;2.73;1.40;;;0.50;70.40;;;;;;5061770;28;20451;-85
2021/01/14 03:41:15;;;;;;;5.30;1.70;;;0.50;70.20;;;;;;5062615;28;20452;-86
2021/01/14 03:43:43;;;;;;;4.63;2.93;;;0.50;70.50;;;;;;5060263;28;20459;-86
2021/01/14 03:46:10;;;;;;;2.00;1.47;;;0.50;70.40;;;;;;5055613;28;20482;-84
2021/01/14 03:48:40;;;;;;;8.40;2.40;;;0.50;69.30;;;;;;5055247;28;20443;-86
2021/01/14 03:51:15;;;;;;;7.20;1.70;;;0.50;69.40;;;;;;5058660;28;20458;-84
2021/01/14 03:53:42;;;;;;;1.27;1.17;;;0.60;68.90;;;;;;5041186;28;20463;-85
2021/01/14 03:56:09;;;;;;;4.40;1.50;;;0.50;68.70;;;;;;5056580;28;20463;-86
2021/01/14 03:58:38;;;;;;;1.77;1.20;;;0.50;68.50;;;;;;5044012;28;20457;-85
2021/01/14 04:01:05;;;;;;;1.63;1.10;;;0.50;68.10;;;;;;5041895;28;20461;-85
2021/01/14 04:03:31;;;;;;;1.10;1.03;;;0.50;68.20;;;;;;5037373;28;20537;-87
2021/01/14 04:05:58;;;;;;;1.67;1.07;;;0.50;67.80;;;;;;5054455;28;20484;-85
2021/01/14 04:08:26;;;;;;;3.93;1.20;;;0.50;67.20;;;;;;5059855;28;20442;-88
2021/01/14 04:10:57;;;;;;;2.00;1.23;;;0.50;66.90;;;;;;5056867;28;20471;-86
2021/01/14 04:13:27;;;;;;;1.90;1.17;;;0.50;67.10;;;;;;5053904;28;20477;-87
2021/01/14 04:15:54;;;;;;;2.13;1.03;;;0.50;65.90;;;;;;5050462;28;21260;-88
2021/01/14 04:18:20;;;;;;;4.50;1.83;;;0.60;66.00;;;;;;5054028;28;20459;-87
2021/01/14 04:20:47;;;;;;;1.80;1.70;;;0.60;65.70;;;;;;5061281;28;20485;-87
2021/01/14 04:23:14;;;;;;;3.87;1.20;;;0.50;66.10;;;;;;5055667;28;20452;-86
2021/01/14 04:25:43;;;;;;;2.23;1.53;;;0.50;65.90;;;;;;5049129;28;20466;-87
2021/01/14 04:28:10;;;;;;;3.33;2.07;;;0.40;66.50;;;;;;5050805;28;20443;-85
2021/01/14 04:30:37;;;;;;;2.30;1.73;;;0.40;66.00;;;;;;5034724;28;20457;-85
2021/01/14 04:33:11;;;;;;;2.00;1.10;;;0.50;65.70;;;;;;5052543;28;20449;-85
2021/01/14 04:35:46;;;;;;;8.00;2.50;;;0.50;64.80;;;;;;5050564;28;20452;-85
2021/01/14 04:38:14;;;;;;;7.33;2.03;;;0.50;65.20;;;;;;5052565;28;20946;-86
2021/01/14 04:40:43;;;;;;;6.90;1.80;;;0.20;65.10;;;;;;5055185;28;20439;-86
2021/01/14 04:43:14;;;;;;;6.33;2.83;;;0.60;65.10;;;;;;5056190;28;20487;-84
2021/01/14 04:45:41;;;;;;;4.03;2.10;;;0.50;65.20;;;;;;5069622;28;20472;-83
2021/01/14 04:48:11;;;;;;;3.40;1.23;;;0.50;65.20;;;;;;5047698;28;20490;-86
2021/01/14 04:50:42;;;;;;;5.20;1.23;;;0.40;65.10;;;;;;5035787;28;20453;-86
2021/01/14 04:53:14;;;;;;;3.63;1.40;;;0.40;65.40;;;;;;5054746;28;20567;-85
2021/01/14 04:55:45;;;;;;;3.27;1.10;;;0.40;65.70;;;;;;5050384;28;21883;-85
2021/01/14 04:58:19;;;;;;;1.97;1.30;;;0.30;65.70;;;;;;5050885;28;20502;-85
2021/01/14 05:00:50;;;;;;;2.47;1.27;;;0.40;65.60;;;;;;5031259;28;20661;-85
2021/01/14 05:03:24;;;;;;;2.03;1.50;;;;;;;;;;5049501;28;20533;-85
2021/01/14 05:05:52;;;;;;;3.70;1.47;;;0.20;66.20;;;;;;5047064;28;20849;-86
2021/01/14 05:08:26;;;;;;;2.03;1.27;;;0.20;66.50;;;;;;5030909;28;21029;-84
2021/01/14 05:11:00;;;;;;;2.00;1.30;;;0.20;66.70;;;;;;5050498;28;20473;-89
2021/01/14 05:13:32;;;;;;;1.37;1.10;;;0.10;67.30;;;;;;5051991;28;20504;-87
2021/01/14 05:16:02;;;;;;;5.07;1.27;;;0.20;66.90;;;;;;5044085;28;21012;-90
2021/01/14 05:18:30;;;;;;;1.83;1.33;;;0.20;67.00;;;;;;5048984;28;20526;-89
2021/01/14 05:20:59;;;;;;;7.10;2.87;;;0.20;66.80;;;;;;5055146;28;20464;-88
2021/01/14 05:23:31;;;;;;;2.90;1.20;;;0.20;66.50;;;;;;5053341;28;20467;-90
2021/01/14 05:26:02;;;;;;;2.27;1.30;;;0.20;66.60;;;;;;5057079;28;20506;-90
2021/01/14 05:28:33;;;;;;;4.03;1.10;;;0.20;66.70;;;;;;5033911;28;20554;-88
2021/01/14 05:31:18;;;;;;;3.97;1.40;;;0.10;66.60;;;;;;5063710;28;20472;-88
2021/01/14 05:33:59;;;;;;;2.70;1.33;;;0.10;66.80;;;;;;5049859;28;20447;-88
2021/01/14 05:36:47;;;;;;;1.43;1.33;;;0.10;66.70;;;;;;5057222;28;20451;-89
2021/01/14 05:39:23;;;;;;;3.50;1.30;;;0.10;66.90;;;;;;5036482;28;20500;-88
2021/01/14 05:41:55;;;;;;;3.27;1.40;;;0.10;66.60;;;;;;5039036;28;20485;-88
2021/01/14 05:44:42;;;;;;;3.37;1.40;;;0.10;66.50;;;;;;5031098;28;20539;-89
2021/01/14 05:47:27;;;;;;;6.13;1.20;;;0.00;66.10;;;;;;5041040;28;20440;-90
2021/01/14 05:56:01;;;;;;;3.70;1.00;;;0.00;66.50;;;;;;5076360;28;20480;-90
2021/01/14 05:58:43;;;;;;;2.10;1.10;;;-0.10;65.90;;;;;;5072101;28;20435;-90
2021/01/14 06:01:35;;;;;;;2.33;1.30;;;0.00;65.60;;;;;;5069757;28;20487;-90
2021/01/14 06:04:24;;;;;;;6.00;1.10;;;0.00;65.90;;;;;;5064671;28;20525;-89
2021/01/14 06:06:56;;;;;;;6.17;1.80;;;-0.10;65.70;;;;;;5055970;28;20441;-89
2021/01/14 06:12:22;;;;;;;1.63;1.17;;;-0.10;66.20;;;;;;5076307;28;20469;-88
2021/01/14 06:14:50;;;;;;;4.17;0.90;;;-0.10;66.00;;;;;;5067698;28;20482;-90
2021/01/14 06:17:20;;;;;;;1.23;0.83;;;-0.10;65.30;;;;;;5065108;28;20447;-88
2021/01/14 06:19:48;;;;;;;7.03;1.40;;;-0.10;65.60;;;;;;5069997;28;20459;-88
2021/01/14 06:22:21;;;;;;;4.60;1.00;;;-0.10;65.90;;;;;;5047965;28;20453;-89
2021/01/14 06:25:01;;;;;;;1.63;1.10;;;-0.10;65.30;;;;;;5068325;28;20479;-87
2021/01/14 06:27:31;;;;;;;4.90;1.50;;;-0.10;65.40;;;;;;5043292;28;20459;-87
2021/01/14 06:30:04;;;;;;;8.67;1.80;;;-0.10;65.30;;;;;;5055396;28;20894;-89
2021/01/14 06:33:00;;;;;;;1.97;1.10;;;-0.10;65.40;;;;;;5055025;28;20492;-88
2021/01/14 06:35:32;;;;;;;5.97;1.50;;;-0.10;65.60;;;;;;5040310;28;20458;-88
2021/01/14 06:38:05;;;;;;;3.83;1.43;;;-0.10;65.60;;;;;;5052813;28;20446;-88
2021/01/14 06:43:44;;;;;;;8.03;1.10;;;-0.10;65.50;;;;;;5081521;28;20489;-90
2021/01/14 06:46:26;;;;;;;3.90;1.83;;;-0.10;66.20;;;;;;5060608;28;20473;-89
2021/01/14 06:49:17;;;;;;;6.73;1.87;;;0.00;66.30;;;;;;5057112;28;20836;-89
2021/01/14 06:52:26;;;;;;;5.60;1.43;;;-0.10;65.50;;;;;;5051725;28;20450;-88
2021/01/14 06:54:56;;;;;;;5.03;1.60;;;0.00;65.50;;;;;;5060273;28;20954;-89
2021/01/14 06:57:30;;;;;;;2.53;1.20;;;0.10;65.80;;;;;;5054705;28;20456;-87
2021/01/14 07:00:08;;;;;;;8.97;1.97;;;0.00;65.20;;;;;;5022558;28;20456;-89
2021/01/14 07:02:56;;;;;;;2.87;1.67;;;0.10;65.60;;;;;;5057936;28;20466;-89
2021/01/14 07:08:32;;;;;;;1.67;1.00;;;0.10;65.90;;;;;;5061485;28;20522;-90
2021/01/14 07:11:16;;;;;;;3.00;1.30;;;0.10;65.40;;;;;;5059616;28;20474;-89
2021/01/14 07:13:51;;;;;;;4.70;1.60;;;0.10;65.80;;;;;;5058768;28;20522;-89
2021/01/14 07:19:10;;;;;;;2.60;1.20;;;0.10;65.90;;;;;;5065876;28;20456;-89
2021/01/14 07:21:42;;;;;;;3.10;1.60;;;0.10;65.30;;;;;;5066840;28;20469;-88
2021/01/14 07:24:18;;;;;;;3.10;1.60;;;0.10;65.90;;;;;;5065764;28;20531;-90
2021/01/14 07:29:55;;;;;;;7.87;2.20;;;0.20;65.60;;;;;;5070740;28;20451;-89
2021/01/14 07:32:52;;;;;;;4.80;1.17;;;0.20;66.20;;;;;;5072903;28;20452;-91
2021/01/14 07:35:36;;;;;;;3.40;1.70;;;0.20;65.70;;;;;;5072467;28;20467;-90
2021/01/14 07:43:38;;;;;;;3.50;1.60;;;0.30;66.20;;;;;;5068832;28;20476;-87
2021/01/14 07:46:24;;;;;;;2.33;1.10;;;0.30;65.60;;;;;;5074420;28;20458;-88
2021/01/14 07:51:58;;;;;;;2.20;1.20;;;0.30;65.90;;;;;;5070295;28;20502;-81
2021/01/14 07:54:32;;;;;;;3.20;1.40;;;0.30;65.60;;;;;;5065037;28;21268;-86
2021/01/14 07:57:07;;;;;;;4.47;1.03;;;0.30;65.60;;;;;;5064998;28;20457;-84
2021/01/14 07:59:38;;;;;;;4.97;1.27;;;0.30;65.60;;;;;;5063879;28;20448;-87
2021/01/14 08:02:07;;;;;;;3.57;1.57;;;0.40;65.70;;;;;;5061153;28;20458;-86
2021/01/14 08:04:45;;;;;;;8.27;1.40;;;0.40;66.00;;;;;;5043563;28;20474;-70
2021/01/14 08:07:24;;;;;;;3.53;1.83;;;0.50;65.80;;;;;;5040211;28;21315;-76
2021/01/14 08:09:52;;;;;;;2.13;1.30;;;0.50;64.70;;;;;;5046669;28;20555;-77
2021/01/14 08:12:22;;;;;;;3.53;1.33;;;0.50;65.10;;;;;;5048056;28;21072;-77
2021/01/14 08:14:49;;;;;;;2.80;1.60;;;0.40;64.60;;;;;;5046409;28;21715;-76
2021/01/14 08:17:24;;;;;;;3.40;1.80;;;0.50;65.20;;;;;;5043693;28;20817;-76
2021/01/14 08:19:52;;;;;;;3.73;1.60;;;0.50;65.20;;;;;;5047446;28;20469;-77
2021/01/14 08:22:19;;;;;;;6.60;1.60;;;0.50;64.60;;;;;;5050354;28;20451;-78
2021/01/14 08:24:51;;;;;;;4.63;1.50;;;0.40;64.90;;;;;;5044406;28;20475;-76
2021/01/14 08:27:30;;;;;;;4.90;2.07;;;0.50;64.60;;;;;;5045209;28;20869;-76
2021/01/14 08:29:59;;;;;;;6.27;1.63;;;0.60;64.90;;;;;;5048721;28;20593;-77
2021/01/14 08:32:40;;;;;;;3.37;1.87;;;0.60;64.70;;;;;;5046349;28;20463;-78
2021/01/14 08:35:17;;;;;;;1.83;1.20;;;0.60;65.00;;;;;;5051836;28;20451;-81
2021/01/14 08:37:46;;;;;;;3.73;1.70;;;0.60;64.10;;;;;;5050169;28;20781;-78
2021/01/14 08:40:16;;;;;;;3.23;1.87;;;0.50;64.60;;;;;;5057122;28;20453;-81
2021/01/14 08:42:46;;;;;;;6.10;1.70;;;0.60;64.50;;;;;;5036637;28;20464;-81
2021/01/14 08:45:19;;;;;;;5.03;1.73;;;0.70;64.50;;;;;;5052107;28;20496;-81
2021/01/14 08:47:59;;;;;;;9.60;1.23;;;0.60;64.30;;;;;;5059317;28;20451;-82
2021/01/14 08:50:50;;;;;;;4.93;1.43;;;0.70;64.60;;;;;;5066376;28;20799;-81
2021/01/14 08:53:26;;;;;;;3.53;1.90;;;0.70;64.60;;;;;;5047899;28;20461;-83
2021/01/14 08:55:57;;;;;;;3.40;1.90;;;0.80;65.00;;;;;;5065465;28;20430;-82
2021/01/14 08:58:43;;;;;;;7.67;2.20;;;0.70;64.10;;;;;;5053467;28;20511;-80
2021/01/14 09:01:16;;;;;;;4.43;1.60;;;0.70;64.30;;;;;;5053979;28;20449;-78
2021/01/14 09:03:44;;;;;;;6.97;1.87;;;0.60;64.60;;;;;;5050378;28;20478;-78
2021/01/14 09:06:11;;;;;;;3.20;1.97;;;0.70;64.60;;;;;;5054345;28;20514;-81
2021/01/14 09:08:39;;;;;;;6.87;1.70;;;0.70;64.40;;;;;;5055648;28;20507;-81
2021/01/14 09:11:07;;;;;;;2.30;1.50;;;0.80;64.80;;;;;;5060945;28;20457;-84
2021/01/14 09:13:36;;;;;;;2.40;1.57;;;0.80;64.40;;;;;;5052898;28;20479;-81
2021/01/14 09:16:12;;;;;;;4.80;1.53;;;0.80;64.60;;;;;;5054526;28;20455;-82
2021/01/14 09:18:41;;;;;;;4.17;1.83;;;1.00;64.50;;;;;;5051523;28;20464;-81
2021/01/14 09:21:11;;;;;;;3.10;1.90;;;0.90;64.30;;;;;;5053450;28;20458;-82
2021/01/14 09:23:39;;;;;;;4.00;2.40;;;0.90;64.40;;;;;;5055875;28;20879;-82
2021/01/14 09:26:12;;;;;;;6.03;2.20;;;0.80;64.80;;;;;;5057867;28;20439;-86
2021/01/14 09:28:41;;;;;;;2.70;1.57;;;0.90;65.50;;;;;;5059621;28;20457;-85
2021/01/14 09:31:10;;;;;;;4.50;2.37;;;0.90;65.00;;;;;;5062424;28;20489;-81
2021/01/14 09:33:43;;;;;;;5.43;2.23;;;0.90;65.10;;;;;;5042546;28;20484;-83
2021/01/14 09:36:12;;;;;;;6.50;2.20;;;0.80;64.40;;;;;;5046853;28;20983;-85
2021/01/14 09:38:48;;;;;;;3.97;2.63;;;0.80;64.90;;;;;;5069810;28;20461;-83
2021/01/14 09:41:23;;;;;;;2.03;1.73;;;1.00;65.30;;;;;;5064342;28;20975;-84
2021/01/14 09:49:21;;;;;;;3.10;1.87;;;0.90;65.10;;;;;;5069816;28;20456;-83
2021/01/14 09:57:20;;;;;;;3.30;1.97;;;1.00;65.00;;;;;;5064763;28;20509;-84
2021/01/14 09:59:51;;;;;;;3.83;1.53;;;1.10;64.80;;;;;;5066279;28;20544;-86
2021/01/14 10:02:28;;;;;;;2.83;1.80;;;0.90;64.30;;;;;;5047554;28;20602;-90
2021/01/14 10:05:05;;;;;;;3.40;2.27;;;1.00;64.60;;;;;;5069485;28;20474;-82
2021/01/14 10:07:36;;;;;;;2.95;1.60;;;1.00;64.50;;;;;;5035042;28;20439;-84
2021/01/14 10:10:08;;;;;;;5.25;2.30;;;1.00;64.40;;;;;;5069621;28;20451;-80
2021/01/14 10:12:36;;;;;;;6.05;2.97;;;1.00;64.50;;;;;;5084135;28;20953;-86
2021/01/14 10:15:17;;;;;;;4.17;2.30;;;1.10;64.70;;;;;;5058350;28;20228;-86
2021/01/14 10:17:46;;;;;;;2.03;1.80;;;1.10;64.40;;;;;;5066093;28;20458;-87
2021/01/14 10:20:19;;;;;;;12.03;3.20;;;1.10;64.30;;;;;;5043162;28;20535;-86
2021/01/14 10:22:48;;;;;;;5.67;2.20;;;1.20;64.80;;;;;;5038150;28;20450;-83
2021/01/14 10:25:17;;;;;;;3.43;2.20;;;1.30;64.50;;;;;;5053369;28;20480;-82
2021/01/14 10:27:58;;;;;;;2.33;2.00;;;1.20;64.30;;;;;;5053114;28;20553;-84
2021/01/14 10:30:26;;;;;;;4.60;2.20;;;1.20;64.70;;;;;;5060618;28;20494;-86
2021/01/14 10:33:02;;;;;;;4.63;1.90;;;1.20;64.10;;;;;;5063875;28;20450;-84
2021/01/14 10:35:31;;;;;;;6.10;2.80;;;1.30;64.40;;;;;;5043049;28;20447;-87
2021/01/14 10:38:06;;;;;;;5.07;2.80;;;1.40;64.50;;;;;;5059744;28;20497;-81
2021/01/14 10:40:56;;;;;;;6.40;3.00;;;1.40;64.30;;;;;;5055186;28;20444;-86
2021/01/14 10:43:30;;;;;;;4.03;2.40;;;1.30;63.80;;;;;;5055049;28;20918;-79
2021/01/14 10:45:58;;;;;;;6.00;2.63;;;1.20;64.10;;;;;;5054015;28;20208;-79
2021/01/14 10:48:36;;;;;;;4.90;2.20;;;1.30;64.60;;;;;;5051160;28;20481;-79
2021/01/14 10:51:04;;;;;;;2.53;1.83;;;1.30;64.30;;;;;;5052794;28;20450;-85
2021/01/14 10:53:33;;;;;;;3.30;2.50;;;1.20;64.30;;;;;;5059895;28;20454;-80
2021/01/14 10:56:07;;;;;;;6.10;4.50;;;1.30;64.70;;;;;;5049992;28;20566;-82
2021/01/14 10:58:36;;;;;;;6.07;2.83;;;1.20;64.70;;;;;;5055334;28;21032;-80
2021/01/14 11:01:03;;;;;;;4.50;2.70;;;1.10;64.60;;;;;;5056564;28;20450;-80
2021/01/14 11:03:30;;;;;;;8.20;3.27;;;1.10;64.60;;;;;;5052718;28;20470;-80
2021/01/14 11:05:59;;;;;;;4.40;2.80;;;1.10;64.60;;;;;;5049661;28;20464;-79
2021/01/14 11:08:27;;;;;;;5.73;2.40;;;1.30;64.80;;;;;;5052763;28;20446;-79
2021/01/14 11:11:04;;;;;;;4.97;2.80;;;1.30;64.80;;;;;;5055355;28;20950;-84
2021/01/14 11:13:40;;;;;;;3.47;2.77;;;1.20;64.70;;;;;;5053782;28;20465;-80
2021/01/14 11:16:11;;;;;;;5.23;2.70;;;1.10;64.60;;;;;;5050946;28;20474;-79
2021/01/14 11:18:40;;;;;;;2.57;2.33;;;1.40;65.10;;;;;;5051494;28;20463;-78
2021/01/14 11:21:07;;;;;;;6.90;2.80;;;1.50;64.40;;;;;;5052023;28;20454;-80
2021/01/14 11:23:36;;;;;;;3.37;2.67;;;1.50;64.70;;;;;;5055622;28;20506;-79
2021/01/14 11:26:03;;;;;;;4.37;2.67;;;1.60;64.10;;;;;;5044777;28;20477;-79
2021/01/14 11:28:30;;;;;;;2.93;2.30;;;1.60;64.10;;;;;;5058580;28;20448;-81
2021/01/14 11:30:58;;;;;;;8.43;2.70;;;1.80;64.20;;;;;;5060796;28;20456;-80
2021/01/14 11:33:25;;;;;;;6.27;2.77;;;2.10;64.50;;;;;;5070771;28;20444;-80
2021/01/14 11:35:52;;;;;;;6.27;2.80;;;2.10;63.80;;;;;;5066125;28;20454;-80
2021/01/14 11:38:19;;;;;;;4.13;3.20;;;1.90;63.50;;;;;;5061265;28;20500;-79
2021/01/14 11:40:47;;;;;;;3.00;2.33;;;1.90;63.90;;;;;;5060238;28;20455;-79
2021/01/14 11:43:13;;;;;;;6.57;2.70;;;2.00;64.00;;;;;;5072554;28;20444;-79
2021/01/14 11:45:40;;;;;;;7.73;3.77;;;1.90;63.70;;;;;;5067837;28;20470;-79
2021/01/14 11:48:08;;;;;;;5.10;2.47;;;1.90;63.90;;;;;;5064930;28;20947;-80
2021/01/14 11:50:35;;;;;;;3.73;2.50;;;2.10;63.90;;;;;;5055435;28;20868;-79
2021/01/14 11:53:02;;;;;;;6.80;3.20;;;1.70;63.40;;;;;;5058946;28;20523;-79
2021/01/14 11:55:28;;;;;;;2.90;2.30;;;1.60;63.80;;;;;;5053987;28;20533;-80
2021/01/14 11:57:55;;;;;;;4.00;3.50;;;1.50;64.00;;;;;;5056624;28;20845;-84
2021/01/14 12:00:22;;;;;;;3.23;2.80;;;1.60;64.30;;;;;;5076515;28;20532;-80
2021/01/14 12:02:48;;;;;;;3.50;3.00;;;1.80;64.20;;;;;;5078680;28;20523;-84
2021/01/14 12:05:16;;;;;;;5.50;3.53;;;1.70;64.20;;;;;;5054224;28;20528;-79
2021/01/14 12:07:43;;;;;;;5.00;3.20;;;1.90;64.50;;;;;;5060613;28;20459;-79
2021/01/14 12:10:10;;;;;;;5.30;3.87;;;1.90;64.00;;;;;;5063348;28;20467;-81
2021/01/14 12:12:38;;;;;;;4.43;3.00;;;1.70;64.10;;;;;;5066242;28;20463;-80
2021/01/14 12:15:06;;;;;;;4.67;3.27;;;1.50;63.90;;;;;;5053831;28;21062;-81
2021/01/14 12:17:35;;;;;;;8.20;3.00;;;1.60;64.00;;;;;;5054858;28;20442;-80
2021/01/14 12:20:07;;;;;;;5.20;3.20;;;1.60;64.50;;;;;;5056341;28;20527;-80
2021/01/14 12:22:38;;;;;;;4.87;2.87;;;1.70;64.30;;;;;;5053568;28;20478;-82
2021/01/14 12:25:09;;;;;;;5.77;3.20;;;1.70;64.00;;;;;;5054375;28;20497;-77
2021/01/14 12:27:36;;;;;;;5.20;2.73;;;1.60;64.10;;;;;;5049186;28;20455;-79
2021/01/14 12:30:04;;;;;;;5.83;3.53;;;1.60;64.50;;;;;;5052629;28;20463;-79
2021/01/14 12:32:32;;;;;;;6.93;3.63;;;1.70;64.20;;;;;;5051233;28;20458;-80
2021/01/14 12:34:58;;;;;;;3.40;3.10;;;1.70;64.20;;;;;;5052258;28;20452;-80
2021/01/14 12:37:25;;;;;;;5.50;3.03;;;1.60;64.20;;;;;;5064755;28;20552;-80
2021/01/14 12:39:52;;;;;;;6.20;2.90;;;1.70;64.20;;;;;;5054363;28;20475;-79
2021/01/14 12:42:19;;;;;;;3.73;3.33;;;1.60;64.10;;;;;;5050337;28;20454;-79
2021/01/14 12:44:46;;;;;;;5.50;3.50;;;1.60;64.20;;;;;;5056807;28;20463;-82
2021/01/14 12:47:12;;;;;;;6.17;3.40;;;1.50;64.00;;;;;;5049245;28;20783;-78
2021/01/14 12:49:39;;;;;;;7.10;3.40;;;1.60;64.50;;;;;;5040343;28;21066;-80
2021/01/14 12:52:06;;;;;;;4.77;3.63;;;1.80;64.50;;;;;;5051380;28;21048;-80
2021/01/14 12:54:37;;;;;;;6.33;3.53;;;2.00;64.40;;;;;;5053729;28;20947;-80
2021/01/14 12:57:07;;;;;;;4.70;3.40;;;2.20;64.70;;;;;;5054743;28;20447;-82
2021/01/14 12:59:34;;;;;;;4.30;3.60;;;1.90;63.50;;;;;;5056615;28;20469;-83
2021/01/14 13:02:06;;;;;;;6.67;3.80;;;2.00;64.00;;;;;;5038757;28;20551;-84
2021/01/14 13:04:35;;;;;;;4.47;3.57;;;2.00;63.90;;;;;;5051863;28;20796;-83
2021/01/14 13:07:03;;;;;;;5.17;3.47;;;2.00;64.00;;;;;;5061685;28;20480;-84
2021/01/14 13:09:30;;;;;;;3.90;3.33;;;1.80;63.90;;;;;;5055438;28;20538;-84
2021/01/14 13:11:57;;;;;;;3.53;3.23;;;1.80;64.30;;;;;;5034484;28;20453;-83
2021/01/14 13:14:26;;;;;;;6.00;3.83;;;1.80;64.00;;;;;;5055043;28;20484;-84
2021/01/14 13:16:54;;;;;;;6.50;3.17;;;1.80;64.10;;;;;;5061493;28;20442;-82
2021/01/14 13:19:21;;;;;;;3.27;2.93;;;1.60;63.90;;;;;;5053995;28;20452;-82
2021/01/14 13:21:50;;;;;;;12.37;5.40;;;1.60;64.00;;;;;;5045612;28;20597;-84
2021/01/14 13:24:18;;;;;;;5.53;4.23;;;1.60;64.00;;;;;;5069421;28;20460;-84
2021/01/14 13:26:48;;;;;;;5.60;3.93;;;1.70;64.20;;;;;;5060709;28;20463;-84
2021/01/14 13:29:15;;;;;;;4.17;3.70;;;1.60;63.90;;;;;;5032511;28;20456;-79
2021/01/14 13:31:45;;;;;;;4.30;3.57;;;1.50;63.80;;;;;;5067438;28;20478;-83
2021/01/14 13:34:13;;;;;;;4.83;3.40;;;1.60;64.30;;;;;;5069333;28;20451;-82
2021/01/14 13:36:43;;;;;;;5.27;4.17;;;1.70;64.00;;;;;;5058738;28;20451;-81
2021/01/14 13:39:11;;;;;;;7.60;3.73;;;1.80;64.20;;;;;;5057779;28;20468;-83
2021/01/14 13:41:38;;;;;;;4.17;3.30;;;1.70;64.20;;;;;;5059234;28;20432;-83
2021/01/14 13:44:06;;;;;;;6.10;3.80;;;1.70;64.30;;;;;;5040851;28;20582;-83
2021/01/14 13:46:38;;;;;;;7.33;3.50;;;1.80;64.20;;;;;;5063901;28;20498;-84
2021/01/14 13:49:06;;;;;;;6.03;3.73;;;1.70;64.40;;;;;;5067370;28;20583;-84
2021/01/14 13:51:35;;;;;;;5.77;3.83;;;1.80;64.10;;;;;;5042758;28;20462;-82
2021/01/14 13:54:04;;;;;;;4.13;3.70;;;1.70;64.10;;;;;;5057337;28;20443;-84
2021/01/14 13:56:34;;;;;;;7.25;4.60;;;1.70;64.40;;;;;;5056372;28;20446;-84
2021/01/14 13:59:03;;;;;;;6.93;3.90;;;1.70;64.50;;;;;;5051992;28;20189;-87